sensor_id;sensor_type;location;lat;lon;timestamp;P1;durP1;ratioP1;P2;durP2;ratioP2
55833;SDS011;41761;43.004;-0.066;2022-10-31T00:02:19;84.68;;;28.75;;
55833;SDS011;41761;43.004;-0.066;2022-10-31T00:04:46;68.95;;;28.08;;
55833;SDS011;41761;43.004;-0.066;2022-10-31T00:07:12;70.47;;;31.23;;
55833;SDS011;41761;43.004;-0.066;2022-10-31T00:09:38;92.40;;;33.53;;
55833;SDS011;41761;43.004;-0.066;2022-10-31T00:12:04;88.47;;;35.10;;
55833;SDS011;41761;43.004;-0.066;2022-10-31T00:14:30;81.43;;;32.25;;
55833;SDS011;41761;43.004;-0.066;2022-10-31T00:16:57;73.53;;;31.58;;
55833;SDS011;41761;43.004;-0.066;2022-10-31T00:19:23;87.32;;;32.30;;
55833;SDS011;41761;43.004;-0.066;2022-10-31T00:21:51;88.05;;;34.72;;
55833;SDS011;41761;43.004;-0.066;2022-10-31T00:24:17;88.93;;;35.33;;
55833;SDS011;41761;43.004;-0.066;2022-10-31T00:26:43;93.40;;;33.08;;
55833;SDS011;41761;43.004;-0.066;2022-10-31T00:29:09;73.28;;;30.90;;
55833;SDS011;41761;43.004;-0.066;2022-10-31T00:31:35;86.82;;;31.45;;
55833;SDS011;41761;43.004;-0.066;2022-10-31T00:34:02;70.32;;;31.05;;
55833;SDS011;41761;43.004;-0.066;2022-10-31T00:36:28;70.50;;;28.30;;
55833;SDS011;41761;43.004;-0.066;2022-10-31T00:38:55;53.60;;;27.42;;
55833;SDS011;41761;43.004;-0.066;2022-10-31T00:41:21;57.72;;;27.35;;
55833;SDS011;41761;43.004;-0.066;2022-10-31T00:43:47;74.53;;;30.23;;
55833;SDS011;41761;43.004;-0.066;2022-10-31T00:46:13;68.78;;;29.73;;
55833;SDS011;41761;43.004;-0.066;2022-10-31T00:48:40;76.03;;;28.58;;
55833;SDS011;41761;43.004;-0.066;2022-10-31T00:51:06;69.13;;;27.00;;
55833;SDS011;41761;43.004;-0.066;2022-10-31T00:53:32;60.97;;;26.27;;
55833;SDS011;41761;43.004;-0.066;2022-10-31T00:55:58;87.03;;;30.83;;
55833;SDS011;41761;43.004;-0.066;2022-10-31T00:58:25;80.15;;;31.00;;
55833;SDS011;41761;43.004;-0.066;2022-10-31T01:00:51;76.85;;;30.92;;
55833;SDS011;41761;43.004;-0.066;2022-10-31T01:03:23;71.50;;;32.38;;
55833;SDS011;41761;43.004;-0.066;2022-10-31T01:06:03;88.85;;;37.63;;
55833;SDS011;41761;43.004;-0.066;2022-10-31T01:08:30;74.57;;;29.75;;
55833;SDS011;41761;43.004;-0.066;2022-10-31T01:13:29;94.90;;;38.13;;
55833;SDS011;41761;43.004;-0.066;2022-10-31T01:15:55;72.32;;;29.75;;
55833;SDS011;41761;43.004;-0.066;2022-10-31T01:18:22;72.72;;;31.92;;
55833;SDS011;41761;43.004;-0.066;2022-10-31T01:20:56;70.13;;;31.48;;
55833;SDS011;41761;43.004;-0.066;2022-10-31T01:23:23;84.10;;;31.42;;
55833;SDS011;41761;43.004;-0.066;2022-10-31T01:25:49;60.70;;;28.20;;
55833;SDS011;41761;43.004;-0.066;2022-10-31T01:28:15;67.18;;;29.73;;
55833;SDS011;41761;43.004;-0.066;2022-10-31T01:30:41;75.50;;;30.88;;
55833;SDS011;41761;43.004;-0.066;2022-10-31T01:33:07;78.93;;;30.73;;
55833;SDS011;41761;43.004;-0.066;2022-10-31T01:35:33;73.22;;;28.63;;
55833;SDS011;41761;43.004;-0.066;2022-10-31T01:38:02;59.22;;;27.00;;
55833;SDS011;41761;43.004;-0.066;2022-10-31T01:40:29;58.65;;;28.23;;
55833;SDS011;41761;43.004;-0.066;2022-10-31T01:42:55;63.30;;;27.00;;
55833;SDS011;41761;43.004;-0.066;2022-10-31T01:45:21;63.05;;;28.08;;
55833;SDS011;41761;43.004;-0.066;2022-10-31T01:47:47;70.78;;;27.90;;
55833;SDS011;41761;43.004;-0.066;2022-10-31T01:50:24;72.03;;;30.08;;
55833;SDS011;41761;43.004;-0.066;2022-10-31T01:52:52;62.33;;;28.95;;
55833;SDS011;41761;43.004;-0.066;2022-10-31T01:56:01;78.35;;;30.70;;
55833;SDS011;41761;43.004;-0.066;2022-10-31T01:58:29;68.93;;;28.73;;
55833;SDS011;41761;43.004;-0.066;2022-10-31T02:00:56;43.80;;;25.83;;
55833;SDS011;41761;43.004;-0.066;2022-10-31T02:03:23;64.53;;;28.05;;
55833;SDS011;41761;43.004;-0.066;2022-10-31T02:05:51;56.55;;;27.17;;
55833;SDS011;41761;43.004;-0.066;2022-10-31T02:08:29;70.15;;;30.33;;
55833;SDS011;41761;43.004;-0.066;2022-10-31T02:10:56;56.90;;;26.85;;
55833;SDS011;41761;43.004;-0.066;2022-10-31T02:13:22;60.65;;;27.70;;
55833;SDS011;41761;43.004;-0.066;2022-10-31T02:15:51;52.22;;;25.70;;
55833;SDS011;41761;43.004;-0.066;2022-10-31T02:18:18;68.13;;;26.73;;
55833;SDS011;41761;43.004;-0.066;2022-10-31T02:20:51;49.03;;;24.08;;
55833;SDS011;41761;43.004;-0.066;2022-10-31T02:33:39;62.97;;;26.45;;
55833;SDS011;41761;43.004;-0.066;2022-10-31T02:36:14;53.13;;;24.63;;
55833;SDS011;41761;43.004;-0.066;2022-10-31T02:38:54;48.83;;;22.58;;
55833;SDS011;41761;43.004;-0.066;2022-10-31T02:44:08;58.78;;;26.85;;
55833;SDS011;41761;43.004;-0.066;2022-10-31T02:49:21;46.60;;;22.77;;
55833;SDS011;41761;43.004;-0.066;2022-10-31T02:54:18;53.92;;;22.30;;
55833;SDS011;41761;43.004;-0.066;2022-10-31T02:56:45;47.38;;;22.52;;
55833;SDS011;41761;43.004;-0.066;2022-10-31T02:59:12;42.85;;;21.48;;
55833;SDS011;41761;43.004;-0.066;2022-10-31T03:04:32;64.40;;;25.07;;
55833;SDS011;41761;43.004;-0.066;2022-10-31T03:17:40;60.65;;;25.27;;
55833;SDS011;41761;43.004;-0.066;2022-10-31T03:20:08;40.22;;;20.65;;
55833;SDS011;41761;43.004;-0.066;2022-10-31T03:22:36;43.70;;;21.25;;
55833;SDS011;41761;43.004;-0.066;2022-10-31T03:25:04;45.72;;;22.40;;
55833;SDS011;41761;43.004;-0.066;2022-10-31T03:27:32;63.88;;;27.52;;
55833;SDS011;41761;43.004;-0.066;2022-10-31T03:30:01;50.78;;;22.52;;
55833;SDS011;41761;43.004;-0.066;2022-10-31T03:32:29;47.10;;;22.20;;
55833;SDS011;41761;43.004;-0.066;2022-10-31T03:34:58;39.22;;;19.98;;
55833;SDS011;41761;43.004;-0.066;2022-10-31T03:37:26;40.75;;;22.40;;
55833;SDS011;41761;43.004;-0.066;2022-10-31T03:39:53;57.97;;;24.15;;
55833;SDS011;41761;43.004;-0.066;2022-10-31T03:42:21;57.10;;;26.00;;
55833;SDS011;41761;43.004;-0.066;2022-10-31T03:45:11;43.28;;;21.35;;
55833;SDS011;41761;43.004;-0.066;2022-10-31T03:47:35;48.83;;;21.85;;
55833;SDS011;41761;43.004;-0.066;2022-10-31T03:50:03;50.78;;;21.60;;
55833;SDS011;41761;43.004;-0.066;2022-10-31T03:55:05;40.13;;;20.40;;
55833;SDS011;41761;43.004;-0.066;2022-10-31T04:00:06;36.78;;;20.73;;
55833;SDS011;41761;43.004;-0.066;2022-10-31T04:02:34;47.17;;;22.45;;
55833;SDS011;41761;43.004;-0.066;2022-10-31T04:05:01;42.72;;;19.48;;
55833;SDS011;41761;43.004;-0.066;2022-10-31T04:07:28;54.90;;;23.45;;
55833;SDS011;41761;43.004;-0.066;2022-10-31T04:09:56;32.97;;;18.92;;
55833;SDS011;41761;43.004;-0.066;2022-10-31T04:12:23;33.08;;;16.58;;
55833;SDS011;41761;43.004;-0.066;2022-10-31T04:14:51;49.67;;;21.85;;
55833;SDS011;41761;43.004;-0.066;2022-10-31T04:17:19;37.53;;;18.30;;
55833;SDS011;41761;43.004;-0.066;2022-10-31T04:19:47;39.60;;;19.05;;
55833;SDS011;41761;43.004;-0.066;2022-10-31T04:22:13;38.95;;;19.70;;
55833;SDS011;41761;43.004;-0.066;2022-10-31T04:24:40;38.83;;;17.88;;
55833;SDS011;41761;43.004;-0.066;2022-10-31T04:27:06;41.05;;;22.48;;
55833;SDS011;41761;43.004;-0.066;2022-10-31T04:29:32;40.08;;;20.77;;
55833;SDS011;41761;43.004;-0.066;2022-10-31T04:31:58;39.40;;;22.08;;
55833;SDS011;41761;43.004;-0.066;2022-10-31T04:34:25;32.60;;;18.13;;
55833;SDS011;41761;43.004;-0.066;2022-10-31T04:36:51;42.42;;;20.58;;
55833;SDS011;41761;43.004;-0.066;2022-10-31T04:39:17;37.10;;;17.67;;
55833;SDS011;41761;43.004;-0.066;2022-10-31T04:41:43;33.45;;;18.98;;
55833;SDS011;41761;43.004;-0.066;2022-10-31T04:44:09;43.65;;;18.08;;
55833;SDS011;41761;43.004;-0.066;2022-10-31T04:46:35;41.95;;;20.65;;
55833;SDS011;41761;43.004;-0.066;2022-10-31T04:49:02;38.40;;;18.23;;
55833;SDS011;41761;43.004;-0.066;2022-10-31T04:51:28;30.17;;;19.00;;
55833;SDS011;41761;43.004;-0.066;2022-10-31T04:53:54;46.40;;;20.80;;
55833;SDS011;41761;43.004;-0.066;2022-10-31T04:56:20;30.73;;;16.50;;
55833;SDS011;41761;43.004;-0.066;2022-10-31T04:58:47;51.90;;;22.50;;
55833;SDS011;41761;43.004;-0.066;2022-10-31T05:01:13;38.20;;;19.00;;
55833;SDS011;41761;43.004;-0.066;2022-10-31T05:03:39;34.03;;;19.13;;
55833;SDS011;41761;43.004;-0.066;2022-10-31T05:06:05;40.60;;;16.95;;
55833;SDS011;41761;43.004;-0.066;2022-10-31T05:08:32;38.72;;;18.95;;
55833;SDS011;41761;43.004;-0.066;2022-10-31T05:11:01;33.42;;;15.85;;
55833;SDS011;41761;43.004;-0.066;2022-10-31T05:13:28;42.78;;;19.73;;
55833;SDS011;41761;43.004;-0.066;2022-10-31T05:15:54;41.67;;;19.65;;
55833;SDS011;41761;43.004;-0.066;2022-10-31T05:18:20;34.90;;;16.98;;
55833;SDS011;41761;43.004;-0.066;2022-10-31T05:20:46;48.17;;;19.80;;
55833;SDS011;41761;43.004;-0.066;2022-10-31T05:23:13;29.85;;;16.35;;
55833;SDS011;41761;43.004;-0.066;2022-10-31T05:25:41;27.45;;;18.73;;
55833;SDS011;41761;43.004;-0.066;2022-10-31T05:28:07;23.63;;;15.13;;
55833;SDS011;41761;43.004;-0.066;2022-10-31T05:30:34;36.70;;;19.27;;
55833;SDS011;41761;43.004;-0.066;2022-10-31T05:33:00;45.70;;;20.75;;
55833;SDS011;41761;43.004;-0.066;2022-10-31T05:35:28;33.25;;;16.02;;
55833;SDS011;41761;43.004;-0.066;2022-10-31T05:37:54;35.13;;;19.20;;
55833;SDS011;41761;43.004;-0.066;2022-10-31T05:40:21;29.40;;;15.02;;
55833;SDS011;41761;43.004;-0.066;2022-10-31T05:42:47;36.28;;;18.52;;
55833;SDS011;41761;43.004;-0.066;2022-10-31T05:45:14;36.88;;;17.77;;
55833;SDS011;41761;43.004;-0.066;2022-10-31T05:47:41;37.92;;;16.67;;
55833;SDS011;41761;43.004;-0.066;2022-10-31T05:50:07;30.08;;;16.85;;
55833;SDS011;41761;43.004;-0.066;2022-10-31T05:52:34;30.17;;;15.35;;
55833;SDS011;41761;43.004;-0.066;2022-10-31T05:55:00;38.28;;;17.52;;
55833;SDS011;41761;43.004;-0.066;2022-10-31T05:57:27;34.92;;;16.15;;
55833;SDS011;41761;43.004;-0.066;2022-10-31T05:59:54;48.45;;;21.40;;
55833;SDS011;41761;43.004;-0.066;2022-10-31T06:02:20;37.08;;;17.02;;
55833;SDS011;41761;43.004;-0.066;2022-10-31T06:04:47;43.25;;;21.17;;
55833;SDS011;41761;43.004;-0.066;2022-10-31T06:07:13;42.97;;;18.30;;
55833;SDS011;41761;43.004;-0.066;2022-10-31T06:09:39;29.60;;;17.10;;
55833;SDS011;41761;43.004;-0.066;2022-10-31T06:12:05;39.95;;;19.98;;
55833;SDS011;41761;43.004;-0.066;2022-10-31T06:14:31;38.92;;;20.92;;
55833;SDS011;41761;43.004;-0.066;2022-10-31T06:16:57;36.05;;;17.67;;
55833;SDS011;41761;43.004;-0.066;2022-10-31T06:19:24;36.15;;;19.27;;
55833;SDS011;41761;43.004;-0.066;2022-10-31T06:21:50;38.47;;;16.90;;
55833;SDS011;41761;43.004;-0.066;2022-10-31T06:24:16;43.13;;;20.83;;
55833;SDS011;41761;43.004;-0.066;2022-10-31T06:26:42;31.88;;;17.42;;
55833;SDS011;41761;43.004;-0.066;2022-10-31T06:29:08;32.55;;;18.55;;
55833;SDS011;41761;43.004;-0.066;2022-10-31T06:31:34;31.13;;;15.82;;
55833;SDS011;41761;43.004;-0.066;2022-10-31T06:34:01;26.58;;;16.67;;
55833;SDS011;41761;43.004;-0.066;2022-10-31T06:36:27;31.23;;;15.30;;
55833;SDS011;41761;43.004;-0.066;2022-10-31T06:38:53;34.15;;;16.42;;
55833;SDS011;41761;43.004;-0.066;2022-10-31T06:41:19;36.58;;;15.98;;
55833;SDS011;41761;43.004;-0.066;2022-10-31T06:43:48;28.45;;;15.20;;
55833;SDS011;41761;43.004;-0.066;2022-10-31T06:46:14;45.92;;;20.35;;
55833;SDS011;41761;43.004;-0.066;2022-10-31T06:48:41;36.75;;;20.20;;
55833;SDS011;41761;43.004;-0.066;2022-10-31T06:51:07;53.22;;;19.98;;
55833;SDS011;41761;43.004;-0.066;2022-10-31T06:53:33;32.75;;;16.50;;
55833;SDS011;41761;43.004;-0.066;2022-10-31T06:55:59;43.05;;;22.20;;
55833;SDS011;41761;43.004;-0.066;2022-10-31T06:58:26;44.00;;;22.48;;
55833;SDS011;41761;43.004;-0.066;2022-10-31T07:00:52;36.60;;;19.98;;
55833;SDS011;41761;43.004;-0.066;2022-10-31T07:03:18;50.00;;;21.50;;
55833;SDS011;41761;43.004;-0.066;2022-10-31T07:05:45;35.80;;;20.75;;
55833;SDS011;41761;43.004;-0.066;2022-10-31T07:08:12;38.55;;;19.15;;
55833;SDS011;41761;43.004;-0.066;2022-10-31T07:10:39;31.10;;;16.88;;
55833;SDS011;41761;43.004;-0.066;2022-10-31T07:13:06;29.52;;;16.35;;
55833;SDS011;41761;43.004;-0.066;2022-10-31T07:15:33;33.10;;;16.48;;
55833;SDS011;41761;43.004;-0.066;2022-10-31T07:18:00;45.90;;;17.27;;
55833;SDS011;41761;43.004;-0.066;2022-10-31T07:20:27;59.35;;;14.73;;
55833;SDS011;41761;43.004;-0.066;2022-10-31T07:22:53;66.43;;;16.33;;
55833;SDS011;41761;43.004;-0.066;2022-10-31T07:25:19;25.48;;;15.15;;
55833;SDS011;41761;43.004;-0.066;2022-10-31T07:27:46;36.38;;;14.13;;
55833;SDS011;41761;43.004;-0.066;2022-10-31T07:30:12;42.80;;;14.07;;
55833;SDS011;41761;43.004;-0.066;2022-10-31T07:32:57;37.67;;;15.40;;
55833;SDS011;41761;43.004;-0.066;2022-10-31T07:35:27;41.72;;;13.57;;
55833;SDS011;41761;43.004;-0.066;2022-10-31T07:37:53;43.75;;;15.18;;
55833;SDS011;41761;43.004;-0.066;2022-10-31T07:40:20;39.20;;;12.63;;
55833;SDS011;41761;43.004;-0.066;2022-10-31T07:42:47;30.65;;;13.65;;
55833;SDS011;41761;43.004;-0.066;2022-10-31T07:45:15;33.65;;;13.05;;
55833;SDS011;41761;43.004;-0.066;2022-10-31T07:47:42;40.90;;;13.70;;
55833;SDS011;41761;43.004;-0.066;2022-10-31T07:50:09;47.95;;;13.60;;
55833;SDS011;41761;43.004;-0.066;2022-10-31T07:52:36;34.60;;;13.88;;
55833;SDS011;41761;43.004;-0.066;2022-10-31T07:55:02;59.22;;;14.43;;
55833;SDS011;41761;43.004;-0.066;2022-10-31T07:57:29;53.88;;;14.25;;
55833;SDS011;41761;43.004;-0.066;2022-10-31T07:59:55;31.40;;;13.73;;
55833;SDS011;41761;43.004;-0.066;2022-10-31T08:02:21;29.90;;;12.55;;
55833;SDS011;41761;43.004;-0.066;2022-10-31T08:04:48;41.47;;;13.63;;
55833;SDS011;41761;43.004;-0.066;2022-10-31T08:07:14;37.55;;;12.75;;
55833;SDS011;41761;43.004;-0.066;2022-10-31T08:09:40;34.97;;;13.02;;
55833;SDS011;41761;43.004;-0.066;2022-10-31T08:12:07;37.78;;;14.90;;
55833;SDS011;41761;43.004;-0.066;2022-10-31T08:14:33;52.65;;;15.32;;
55833;SDS011;41761;43.004;-0.066;2022-10-31T08:16:59;39.75;;;14.48;;
55833;SDS011;41761;43.004;-0.066;2022-10-31T08:19:25;63.70;;;33.28;;
55833;SDS011;41761;43.004;-0.066;2022-10-31T08:21:52;48.40;;;25.33;;
55833;SDS011;41761;43.004;-0.066;2022-10-31T08:24:20;54.75;;;28.73;;
55833;SDS011;41761;43.004;-0.066;2022-10-31T08:26:46;59.42;;;26.98;;
55833;SDS011;41761;43.004;-0.066;2022-10-31T08:29:13;40.78;;;19.75;;
55833;SDS011;41761;43.004;-0.066;2022-10-31T08:31:39;41.55;;;16.33;;
55833;SDS011;41761;43.004;-0.066;2022-10-31T08:34:06;45.55;;;17.00;;
55833;SDS011;41761;43.004;-0.066;2022-10-31T08:36:32;39.33;;;17.95;;
55833;SDS011;41761;43.004;-0.066;2022-10-31T08:38:58;40.03;;;21.35;;
55833;SDS011;41761;43.004;-0.066;2022-10-31T08:41:24;34.17;;;16.45;;
55833;SDS011;41761;43.004;-0.066;2022-10-31T08:43:51;35.75;;;19.00;;
55833;SDS011;41761;43.004;-0.066;2022-10-31T08:46:17;39.15;;;15.00;;
55833;SDS011;41761;43.004;-0.066;2022-10-31T08:48:43;23.92;;;13.80;;
55833;SDS011;41761;43.004;-0.066;2022-10-31T08:51:10;25.63;;;13.57;;
55833;SDS011;41761;43.004;-0.066;2022-10-31T08:53:36;25.08;;;13.43;;
55833;SDS011;41761;43.004;-0.066;2022-10-31T08:56:02;26.00;;;11.65;;
55833;SDS011;41761;43.004;-0.066;2022-10-31T08:58:29;18.27;;;10.82;;
55833;SDS011;41761;43.004;-0.066;2022-10-31T09:00:55;25.55;;;11.88;;
55833;SDS011;41761;43.004;-0.066;2022-10-31T09:03:23;25.05;;;10.85;;
55833;SDS011;41761;43.004;-0.066;2022-10-31T09:05:49;21.25;;;10.55;;
55833;SDS011;41761;43.004;-0.066;2022-10-31T09:08:16;19.45;;;8.95;;
55833;SDS011;41761;43.004;-0.066;2022-10-31T09:10:43;22.52;;;9.68;;
55833;SDS011;41761;43.004;-0.066;2022-10-31T09:13:11;24.95;;;8.15;;
55833;SDS011;41761;43.004;-0.066;2022-10-31T09:15:38;18.20;;;7.72;;
55833;SDS011;41761;43.004;-0.066;2022-10-31T09:18:05;26.67;;;8.73;;
55833;SDS011;41761;43.004;-0.066;2022-10-31T09:20:32;28.45;;;8.48;;
55833;SDS011;41761;43.004;-0.066;2022-10-31T09:23:04;18.85;;;8.40;;
55833;SDS011;41761;43.004;-0.066;2022-10-31T09:25:30;22.85;;;8.73;;
55833;SDS011;41761;43.004;-0.066;2022-10-31T09:27:58;33.60;;;8.85;;
55833;SDS011;41761;43.004;-0.066;2022-10-31T09:30:26;19.05;;;8.27;;
55833;SDS011;41761;43.004;-0.066;2022-10-31T09:32:58;19.63;;;7.65;;
55833;SDS011;41761;43.004;-0.066;2022-10-31T09:35:25;19.75;;;7.55;;
55833;SDS011;41761;43.004;-0.066;2022-10-31T09:37:58;21.48;;;8.52;;
55833;SDS011;41761;43.004;-0.066;2022-10-31T09:40:27;26.02;;;7.07;;
55833;SDS011;41761;43.004;-0.066;2022-10-31T09:42:58;18.75;;;7.15;;
55833;SDS011;41761;43.004;-0.066;2022-10-31T09:50:38;17.95;;;6.40;;
55833;SDS011;41761;43.004;-0.066;2022-10-31T09:53:40;18.55;;;7.35;;
55833;SDS011;41761;43.004;-0.066;2022-10-31T09:55:58;18.05;;;6.82;;
55833;SDS011;41761;43.004;-0.066;2022-10-31T09:58:29;27.10;;;6.85;;
55833;SDS011;41761;43.004;-0.066;2022-10-31T10:00:56;16.30;;;5.35;;
55833;SDS011;41761;43.004;-0.066;2022-10-31T10:06:11;22.48;;;6.03;;
55833;SDS011;41761;43.004;-0.066;2022-10-31T10:08:39;11.57;;;5.93;;
55833;SDS011;41761;43.004;-0.066;2022-10-31T10:22:01;16.17;;;5.43;;
55833;SDS011;41761;43.004;-0.066;2022-10-31T10:31:58;25.65;;;6.15;;
55833;SDS011;41761;43.004;-0.066;2022-10-31T10:34:31;12.73;;;5.20;;
55833;SDS011;41761;43.004;-0.066;2022-10-31T10:37:18;26.73;;;5.28;;
55833;SDS011;41761;43.004;-0.066;2022-10-31T10:39:48;22.00;;;5.63;;
55833;SDS011;41761;43.004;-0.066;2022-10-31T10:42:15;16.65;;;5.90;;
55833;SDS011;41761;43.004;-0.066;2022-10-31T10:45:06;19.10;;;6.25;;
55833;SDS011;41761;43.004;-0.066;2022-10-31T10:48:02;16.52;;;5.53;;
55833;SDS011;41761;43.004;-0.066;2022-10-31T10:50:34;21.02;;;5.22;;
55833;SDS011;41761;43.004;-0.066;2022-10-31T10:53:06;17.95;;;4.38;;
55833;SDS011;41761;43.004;-0.066;2022-10-31T10:58:29;18.25;;;6.07;;
55833;SDS011;41761;43.004;-0.066;2022-10-31T11:00:56;24.40;;;6.13;;
55833;SDS011;41761;43.004;-0.066;2022-10-31T11:03:22;21.65;;;6.25;;
55833;SDS011;41761;43.004;-0.066;2022-10-31T11:11:01;18.35;;;5.03;;
55833;SDS011;41761;43.004;-0.066;2022-10-31T11:13:28;25.10;;;6.55;;
55833;SDS011;41761;43.004;-0.066;2022-10-31T11:16:00;17.33;;;6.43;;
55833;SDS011;41761;43.004;-0.066;2022-10-31T11:18:27;23.02;;;5.35;;
55833;SDS011;41761;43.004;-0.066;2022-10-31T11:20:56;9.27;;;4.63;;
55833;SDS011;41761;43.004;-0.066;2022-10-31T11:23:23;18.17;;;5.78;;
55833;SDS011;41761;43.004;-0.066;2022-10-31T11:25:57;23.65;;;6.00;;
55833;SDS011;41761;43.004;-0.066;2022-10-31T11:28:24;21.73;;;7.32;;
55833;SDS011;41761;43.004;-0.066;2022-10-31T11:30:52;19.25;;;7.15;;
55833;SDS011;41761;43.004;-0.066;2022-10-31T11:35:51;18.20;;;4.93;;
55833;SDS011;41761;43.004;-0.066;2022-10-31T11:38:19;19.42;;;6.25;;
55833;SDS011;41761;43.004;-0.066;2022-10-31T11:41:19;20.38;;;6.32;;
55833;SDS011;41761;43.004;-0.066;2022-10-31T11:43:38;37.00;;;5.30;;
55833;SDS011;41761;43.004;-0.066;2022-10-31T11:46:14;34.42;;;6.07;;
55833;SDS011;41761;43.004;-0.066;2022-10-31T11:48:45;19.08;;;5.50;;
55833;SDS011;41761;43.004;-0.066;2022-10-31T11:51:12;13.35;;;5.50;;
55833;SDS011;41761;43.004;-0.066;2022-10-31T11:53:47;20.30;;;5.32;;
55833;SDS011;41761;43.004;-0.066;2022-10-31T11:56:16;17.73;;;5.70;;
55833;SDS011;41761;43.004;-0.066;2022-10-31T11:58:42;22.42;;;5.82;;
55833;SDS011;41761;43.004;-0.066;2022-10-31T12:01:22;21.40;;;5.18;;
55833;SDS011;41761;43.004;-0.066;2022-10-31T12:04:11;13.93;;;5.10;;
55833;SDS011;41761;43.004;-0.066;2022-10-31T12:06:38;17.98;;;5.07;;
55833;SDS011;41761;43.004;-0.066;2022-10-31T12:14:23;17.30;;;5.22;;
55833;SDS011;41761;43.004;-0.066;2022-10-31T12:17:06;19.90;;;5.20;;
55833;SDS011;41761;43.004;-0.066;2022-10-31T12:30:19;22.63;;;5.75;;
55833;SDS011;41761;43.004;-0.066;2022-10-31T12:35:23;25.42;;;6.07;;
55833;SDS011;41761;43.004;-0.066;2022-10-31T12:40:48;28.95;;;11.52;;
55833;SDS011;41761;43.004;-0.066;2022-10-31T12:45:56;16.88;;;5.18;;
55833;SDS011;41761;43.004;-0.066;2022-10-31T13:01:33;26.05;;;6.60;;
55833;SDS011;41761;43.004;-0.066;2022-10-31T13:06:36;31.40;;;5.93;;
55833;SDS011;41761;43.004;-0.066;2022-10-31T13:09:06;42.40;;;7.20;;
55833;SDS011;41761;43.004;-0.066;2022-10-31T13:11:42;17.70;;;6.35;;
55833;SDS011;41761;43.004;-0.066;2022-10-31T13:16:55;25.30;;;6.10;;
55833;SDS011;41761;43.004;-0.066;2022-10-31T13:19:23;41.13;;;8.10;;
55833;SDS011;41761;43.004;-0.066;2022-10-31T13:21:53;21.05;;;6.65;;
55833;SDS011;41761;43.004;-0.066;2022-10-31T13:24:22;13.40;;;7.25;;
55833;SDS011;41761;43.004;-0.066;2022-10-31T13:26:55;18.42;;;6.20;;
55833;SDS011;41761;43.004;-0.066;2022-10-31T13:29:27;15.30;;;5.80;;
55833;SDS011;41761;43.004;-0.066;2022-10-31T13:31:54;23.77;;;6.40;;
55833;SDS011;41761;43.004;-0.066;2022-10-31T13:34:37;22.92;;;6.22;;
55833;SDS011;41761;43.004;-0.066;2022-10-31T13:37:13;23.25;;;7.78;;
55833;SDS011;41761;43.004;-0.066;2022-10-31T13:39:46;21.27;;;6.90;;
55833;SDS011;41761;43.004;-0.066;2022-10-31T13:42:17;27.85;;;6.05;;
55833;SDS011;41761;43.004;-0.066;2022-10-31T13:44:44;31.13;;;6.22;;
55833;SDS011;41761;43.004;-0.066;2022-10-31T13:49:49;27.02;;;7.25;;
55833;SDS011;41761;43.004;-0.066;2022-10-31T13:52:21;36.53;;;7.03;;
55833;SDS011;41761;43.004;-0.066;2022-10-31T13:54:49;52.63;;;7.63;;
55833;SDS011;41761;43.004;-0.066;2022-10-31T13:59:51;17.50;;;5.97;;
55833;SDS011;41761;43.004;-0.066;2022-10-31T14:02:21;19.63;;;6.18;;
55833;SDS011;41761;43.004;-0.066;2022-10-31T14:04:51;18.08;;;5.70;;
55833;SDS011;41761;43.004;-0.066;2022-10-31T14:07:18;26.02;;;7.28;;
55833;SDS011;41761;43.004;-0.066;2022-10-31T14:09:59;20.05;;;5.97;;
55833;SDS011;41761;43.004;-0.066;2022-10-31T14:13:03;14.68;;;5.40;;
55833;SDS011;41761;43.004;-0.066;2022-10-31T14:22:41;24.30;;;6.10;;
55833;SDS011;41761;43.004;-0.066;2022-10-31T14:27:53;21.77;;;6.13;;
55833;SDS011;41761;43.004;-0.066;2022-10-31T14:30:20;15.60;;;5.32;;
55833;SDS011;41761;43.004;-0.066;2022-10-31T14:33:21;16.17;;;5.82;;
55833;SDS011;41761;43.004;-0.066;2022-10-31T14:35:46;13.50;;;5.57;;
55833;SDS011;41761;43.004;-0.066;2022-10-31T14:39:00;16.02;;;5.35;;
55833;SDS011;41761;43.004;-0.066;2022-10-31T14:46:23;19.08;;;5.55;;
55833;SDS011;41761;43.004;-0.066;2022-10-31T14:48:56;15.68;;;4.90;;
55833;SDS011;41761;43.004;-0.066;2022-10-31T14:51:26;10.65;;;5.10;;
55833;SDS011;41761;43.004;-0.066;2022-10-31T14:53:55;16.15;;;4.95;;
55833;SDS011;41761;43.004;-0.066;2022-10-31T14:56:26;19.85;;;5.68;;
55833;SDS011;41761;43.004;-0.066;2022-10-31T14:58:53;22.33;;;6.00;;
55833;SDS011;41761;43.004;-0.066;2022-10-31T15:03:48;18.52;;;4.57;;
55833;SDS011;41761;43.004;-0.066;2022-10-31T15:06:15;30.25;;;5.93;;
55833;SDS011;41761;43.004;-0.066;2022-10-31T15:08:52;14.95;;;5.25;;
55833;SDS011;41761;43.004;-0.066;2022-10-31T15:11:20;31.48;;;5.45;;
55833;SDS011;41761;43.004;-0.066;2022-10-31T15:13:48;22.58;;;5.68;;
55833;SDS011;41761;43.004;-0.066;2022-10-31T15:16:15;19.92;;;5.18;;
55833;SDS011;41761;43.004;-0.066;2022-10-31T15:18:51;27.02;;;5.72;;
55833;SDS011;41761;43.004;-0.066;2022-10-31T15:21:19;19.05;;;5.32;;
55833;SDS011;41761;43.004;-0.066;2022-10-31T15:23:45;25.25;;;6.82;;
55833;SDS011;41761;43.004;-0.066;2022-10-31T15:26:17;18.42;;;7.20;;
55833;SDS011;41761;43.004;-0.066;2022-10-31T15:28:44;29.95;;;7.25;;
55833;SDS011;41761;43.004;-0.066;2022-10-31T15:31:13;19.85;;;7.82;;
55833;SDS011;41761;43.004;-0.066;2022-10-31T15:33:41;24.27;;;7.65;;
55833;SDS011;41761;43.004;-0.066;2022-10-31T15:36:28;34.22;;;7.70;;
55833;SDS011;41761;43.004;-0.066;2022-10-31T15:38:55;41.20;;;8.90;;
55833;SDS011;41761;43.004;-0.066;2022-10-31T15:49:32;21.77;;;7.28;;
55833;SDS011;41761;43.004;-0.066;2022-10-31T15:52:42;28.05;;;8.40;;
55833;SDS011;41761;43.004;-0.066;2022-10-31T15:54:53;22.63;;;8.98;;
55833;SDS011;41761;43.004;-0.066;2022-10-31T15:57:20;24.67;;;9.18;;
55833;SDS011;41761;43.004;-0.066;2022-10-31T15:59:48;27.65;;;8.25;;
55833;SDS011;41761;43.004;-0.066;2022-10-31T16:02:17;29.90;;;10.20;;
55833;SDS011;41761;43.004;-0.066;2022-10-31T16:04:48;22.58;;;10.45;;
55833;SDS011;41761;43.004;-0.066;2022-10-31T16:07:15;22.85;;;10.55;;
55833;SDS011;41761;43.004;-0.066;2022-10-31T16:12:17;27.88;;;10.10;;
55833;SDS011;41761;43.004;-0.066;2022-10-31T16:14:43;29.42;;;10.95;;
55833;SDS011;41761;43.004;-0.066;2022-10-31T16:17:13;36.42;;;10.98;;
55833;SDS011;41761;43.004;-0.066;2022-10-31T16:19:59;30.80;;;10.48;;
55833;SDS011;41761;43.004;-0.066;2022-10-31T16:22:30;32.55;;;10.90;;
55833;SDS011;41761;43.004;-0.066;2022-10-31T16:25:03;25.35;;;10.02;;
55833;SDS011;41761;43.004;-0.066;2022-10-31T16:27:31;40.03;;;13.18;;
55833;SDS011;41761;43.004;-0.066;2022-10-31T16:29:59;28.55;;;10.45;;
55833;SDS011;41761;43.004;-0.066;2022-10-31T16:37:26;20.10;;;9.13;;
55833;SDS011;41761;43.004;-0.066;2022-10-31T16:39:52;31.02;;;10.13;;
55833;SDS011;41761;43.004;-0.066;2022-10-31T16:42:19;21.85;;;9.40;;
55833;SDS011;41761;43.004;-0.066;2022-10-31T16:44:45;18.88;;;9.38;;
55833;SDS011;41761;43.004;-0.066;2022-10-31T16:47:13;26.35;;;9.30;;
55833;SDS011;41761;43.004;-0.066;2022-10-31T16:49:39;23.83;;;11.35;;
55833;SDS011;41761;43.004;-0.066;2022-10-31T16:52:05;24.10;;;10.27;;
55833;SDS011;41761;43.004;-0.066;2022-10-31T16:54:32;27.58;;;10.27;;
55833;SDS011;41761;43.004;-0.066;2022-10-31T16:56:58;31.33;;;10.18;;
55833;SDS011;41761;43.004;-0.066;2022-10-31T16:59:25;22.38;;;10.20;;
55833;SDS011;41761;43.004;-0.066;2022-10-31T17:01:52;29.88;;;10.27;;